createdAt,value
2022-09-23T00:02:22.063Z,8.47
2022-09-23T00:04:50.680Z,8.40
2022-09-23T00:07:19.001Z,8.49
2022-09-23T00:09:47.314Z,8.51
2022-09-23T00:12:16.979Z,8.51
2022-09-23T00:14:45.406Z,8.52
2022-09-23T00:17:14.030Z,8.44
2022-09-23T00:19:42.517Z,8.32
2022-09-23T00:22:10.872Z,8.29
2022-09-23T00:24:40.251Z,8.27
2022-09-23T00:27:09.846Z,8.22
2022-09-23T00:29:39.633Z,8.17
2022-09-23T00:32:08.016Z,8.09
2022-09-23T00:34:36.342Z,8.08
2022-09-23T00:37:04.893Z,8.14
2022-09-23T00:39:33.247Z,8.21
2022-09-23T00:42:01.990Z,8.20
2022-09-23T00:44:50.570Z,8.07
2022-09-23T00:47:24.829Z,7.87
2022-09-23T00:50:02.157Z,7.78
2022-09-23T00:52:32.174Z,7.77
2022-09-23T00:55:03.926Z,7.86
2022-09-23T00:57:32.973Z,7.99
2022-09-23T01:00:03.104Z,8.05
2022-09-23T01:02:32.919Z,8.12
2022-09-23T01:05:04.557Z,8.18
2022-09-23T01:07:32.906Z,8.19
2022-09-23T01:10:03.013Z,8.22
2022-09-23T01:12:54.316Z,8.19
2022-09-23T01:15:31.129Z,8.16
2022-09-23T01:18:09.594Z,8.14
2022-09-23T01:20:59.196Z,8.14
2022-09-23T01:24:16.653Z,8.07
2022-09-23T01:27:03.124Z,7.91
2022-09-23T01:30:00.376Z,7.79
2022-09-23T01:32:38.662Z,7.85
2022-09-23T01:35:14.347Z,7.87
2022-09-23T01:37:49.271Z,7.81
2022-09-23T01:40:21.979Z,7.82
2022-09-23T01:42:55.046Z,7.80
2022-09-23T01:45:30.040Z,7.68
2022-09-23T01:48:10.300Z,7.47
2022-09-23T01:50:59.425Z,7.23
2022-09-23T01:53:38.353Z,7.38
2022-09-23T01:56:12.265Z,7.52
2022-09-23T01:58:46.571Z,7.47
2022-09-23T02:01:20.921Z,7.43
2022-09-23T02:03:56.900Z,7.32
2022-09-23T02:06:31.065Z,7.44
2022-09-23T02:09:03.031Z,7.38
2022-09-23T02:11:36.456Z,7.44
2022-09-23T02:14:10.957Z,7.45
2022-09-23T02:16:45.046Z,7.52
2022-09-23T02:19:19.992Z,7.54
2022-09-23T02:21:58.892Z,7.58
2022-09-23T02:24:32.152Z,7.62
2022-09-23T02:27:08.950Z,7.64
2022-09-23T02:29:48.942Z,7.54
2022-09-23T02:32:21.980Z,7.39
2022-09-23T02:34:58.609Z,7.34
2022-09-23T02:37:37.219Z,7.21
2022-09-23T02:40:15.720Z,7.22
2022-09-23T02:42:54.358Z,7.02
2022-09-23T02:45:22.702Z,6.94
2022-09-23T02:47:55.967Z,6.93
2022-09-23T02:50:26.166Z,6.88
2022-09-23T02:52:54.510Z,6.86
2022-09-23T02:55:26.582Z,6.96
2022-09-23T02:57:54.917Z,6.88
2022-09-23T03:00:23.273Z,6.90
2022-09-23T03:03:23.113Z,6.99
2022-09-23T03:05:57.858Z,6.95
2022-09-23T03:08:37.827Z,6.98
2022-09-23T03:11:08.636Z,7.07
2022-09-23T03:13:52.980Z,7.20
2022-09-23T03:16:31.017Z,7.26
2022-09-23T03:19:09.980Z,7.28
2022-09-23T03:21:44.999Z,7.33
2022-09-23T03:24:15.827Z,7.37
2022-09-23T03:26:47.622Z,7.31
2022-09-23T03:29:17.952Z,7.23
2022-09-23T03:31:46.514Z,7.09
2022-09-23T03:34:19.423Z,6.97
2022-09-23T03:36:57.181Z,7.02
2022-09-23T03:39:33.431Z,7.07
2022-09-23T03:42:07.890Z,7.06
2022-09-23T03:44:39.679Z,7.02
2022-09-23T03:47:08.079Z,6.95
2022-09-23T03:49:39.196Z,6.98
2022-09-23T03:52:09.171Z,6.88
2022-09-23T03:54:38.256Z,6.85
2022-09-23T03:57:07.555Z,6.82
2022-09-23T03:59:38.045Z,6.75
2022-09-23T04:02:07.961Z,6.78
2022-09-23T04:04:38.974Z,6.73
2022-09-23T04:07:08.826Z,6.68
2022-09-23T04:09:39.966Z,6.59
2022-09-23T04:12:09.112Z,6.57
2022-09-23T04:14:37.480Z,6.60
2022-09-23T04:17:05.988Z,6.65
2022-09-23T04:19:34.423Z,6.60
2022-09-23T04:22:02.758Z,6.68
2022-09-23T04:24:32.530Z,6.74
2022-09-23T04:27:00.888Z,6.80
2022-09-23T04:29:29.194Z,6.76
2022-09-23T04:31:57.837Z,6.74
2022-09-23T04:34:26.198Z,6.74
2022-09-23T04:36:54.781Z,6.71
2022-09-23T04:39:23.086Z,6.71
2022-09-23T04:41:53.930Z,6.72
2022-09-23T04:44:30.517Z,6.71
2022-09-23T04:46:58.951Z,6.62
2022-09-23T04:49:38.507Z,6.37
2022-09-23T04:52:07.369Z,6.23
2022-09-23T04:54:37.726Z,6.31
2022-09-23T04:57:07.876Z,6.44
2022-09-23T04:59:38.285Z,6.55
2022-09-23T05:02:06.736Z,6.57
2022-09-23T05:04:35.420Z,6.54
2022-09-23T05:07:04.421Z,6.60
2022-09-23T05:09:32.878Z,6.57
2022-09-23T05:12:01.231Z,6.60
2022-09-23T05:14:30.895Z,6.58
2022-09-23T05:16:59.202Z,6.54
2022-09-23T05:19:27.554Z,6.58
2022-09-23T05:21:57.800Z,6.64
2022-09-23T05:24:26.201Z,6.61
2022-09-23T05:26:55.849Z,6.53
2022-09-23T05:29:24.199Z,6.34
2022-09-23T05:31:54.205Z,6.37
2022-09-23T05:34:23.199Z,6.37
2022-09-23T05:36:52.496Z,6.42
2022-09-23T05:39:20.800Z,6.50
2022-09-23T05:41:49.114Z,6.57
2022-09-23T05:44:17.454Z,6.53
2022-09-23T05:46:45.826Z,6.49
2022-09-23T05:49:15.567Z,6.53
2022-09-23T05:51:43.939Z,6.63
2022-09-23T05:54:12.406Z,6.65
2022-09-23T05:56:40.760Z,6.66
2022-09-23T05:59:09.083Z,6.73
2022-09-23T06:01:38.695Z,6.77
2022-09-23T06:04:09.122Z,6.81
2022-09-23T06:06:41.392Z,6.88
2022-09-23T06:09:14.585Z,6.97
2022-09-23T06:11:43.325Z,6.85
2022-09-23T06:14:14.515Z,6.73
2022-09-23T06:16:43.060Z,6.80
2022-09-23T06:19:11.584Z,6.95
2022-09-23T06:21:41.585Z,7.11
2022-09-23T06:24:16.741Z,7.29
2022-09-23T06:26:46.397Z,7.41
2022-09-23T06:29:14.771Z,7.45
2022-09-23T06:31:43.467Z,7.55
2022-09-23T06:34:13.899Z,7.65
2022-09-23T06:36:46.416Z,7.71
2022-09-23T06:39:15.932Z,7.78
2022-09-23T06:41:45.149Z,7.86
2022-09-23T06:44:13.998Z,7.86
2022-09-23T06:46:42.414Z,7.87
2022-09-23T06:49:13.390Z,7.96
2022-09-23T06:51:43.244Z,8.04
2022-09-23T06:54:12.047Z,8.16
2022-09-23T06:56:40.826Z,8.29
2022-09-23T06:59:12.967Z,8.37
2022-09-23T07:01:41.438Z,8.43
2022-09-23T07:04:10.158Z,8.49
2022-09-23T07:06:38.579Z,8.60
2022-09-23T07:09:09.714Z,8.72
2022-09-23T07:11:39.443Z,8.84
2022-09-23T07:14:07.881Z,8.95
2022-09-23T07:16:36.664Z,9.03
2022-09-23T07:19:05.150Z,9.11
2022-09-23T07:21:33.651Z,9.19
2022-09-23T07:24:02.329Z,9.29
2022-09-23T07:26:34.199Z,9.38
2022-09-23T07:29:05.185Z,9.47
2022-09-23T07:31:39.817Z,9.56
2022-09-23T07:34:09.893Z,9.64
2022-09-23T07:36:40.858Z,9.71
2022-09-23T07:39:11.141Z,9.79
2022-09-23T07:41:41.777Z,9.86
2022-09-23T07:44:11.784Z,9.93
2022-09-23T07:46:40.464Z,10.01
2022-09-23T07:49:08.860Z,10.08
2022-09-23T07:51:40.064Z,10.14
2022-09-23T07:54:12.027Z,10.23
2022-09-23T07:56:42.803Z,10.33
2022-09-23T07:59:15.698Z,10.40
2022-09-23T08:01:46.682Z,10.48
2022-09-23T08:04:17.771Z,10.53
2022-09-23T08:06:49.137Z,10.60
2022-09-23T08:09:19.475Z,10.68
2022-09-23T08:11:50.764Z,10.75
2022-09-23T08:14:19.739Z,10.83
2022-09-23T08:16:48.305Z,10.93
2022-09-23T08:19:17.744Z,11.02
2022-09-23T08:21:47.735Z,11.12
2022-09-23T08:24:18.651Z,11.21
2022-09-23T08:26:49.575Z,11.30
2022-09-23T08:29:19.394Z,11.39
2022-09-23T08:31:49.492Z,11.48
2022-09-23T08:34:19.175Z,11.56
2022-09-23T08:36:48.128Z,11.65
2022-09-23T08:39:18.311Z,11.74
2022-09-23T08:42:03.202Z,11.83
2022-09-23T08:44:43.672Z,11.95
2022-09-23T08:47:19.394Z,12.06
2022-09-23T08:50:02.048Z,12.16
2022-09-23T08:52:35.780Z,12.26
2022-09-23T08:55:06.144Z,12.36
2022-09-23T08:58:07.900Z,12.48
2022-09-23T09:00:42.769Z,12.56
2022-09-23T09:03:21.970Z,12.65
2022-09-23T09:05:54.361Z,12.73
2022-09-23T09:08:26.509Z,12.83
2022-09-23T09:10:58.160Z,12.93
2022-09-23T09:13:32.982Z,13.04
2022-09-23T09:16:18.824Z,13.13
2022-09-23T09:18:59.785Z,13.18
2022-09-23T09:21:37.170Z,13.26
2022-09-23T09:24:17.403Z,13.33
2022-09-23T09:26:45.706Z,13.41
2022-09-23T09:29:34.893Z,13.49
2022-09-23T09:32:17.741Z,13.57
2022-09-23T09:34:54.062Z,13.65
2022-09-23T09:37:32.941Z,13.72
2022-09-23T09:40:02.073Z,13.78
2022-09-23T09:42:39.941Z,13.86
2022-09-23T09:45:19.691Z,13.92
2022-09-23T09:47:56.751Z,13.99
2022-09-23T09:50:45.470Z,14.08
2022-09-23T09:53:25.738Z,14.17
2022-09-23T09:56:06.036Z,14.21
2022-09-23T09:58:43.862Z,14.29
2022-09-23T10:01:24.667Z,14.38
2022-09-23T10:03:56.905Z,14.45
2022-09-23T10:06:29.942Z,14.58
2022-09-23T10:09:17.028Z,14.67
2022-09-23T10:12:04.398Z,14.79
2022-09-23T10:14:32.971Z,14.90
2022-09-23T10:17:07.271Z,14.97
2022-09-23T10:19:38.011Z,15.05
2022-09-23T10:22:21.324Z,15.15
2022-09-23T10:24:52.647Z,15.30
2022-09-23T10:27:29.166Z,15.43
2022-09-23T10:29:58.819Z,15.55
2022-09-23T10:32:33.796Z,15.68
2022-09-23T10:35:14.021Z,15.78
2022-09-23T10:37:43.934Z,15.89
2022-09-23T10:40:35.897Z,15.98
2022-09-23T10:43:42.612Z,16.09
2022-09-23T10:46:36.810Z,16.23
2022-09-23T10:49:27.731Z,16.25
2022-09-23T10:52:14.237Z,16.38
2022-09-23T10:54:53.331Z,16.54
2022-09-23T10:57:42.471Z,16.62
2022-09-23T11:00:23.273Z,16.71
2022-09-23T11:03:32.187Z,16.83
2022-09-23T11:06:13.599Z,16.99
2022-09-23T11:08:59.245Z,17.07
2022-09-23T11:11:38.744Z,17.17
2022-09-23T11:14:21.405Z,17.23
2022-09-23T11:17:05.889Z,17.26
2022-09-23T11:20:03.624Z,17.31
2022-09-23T11:22:48.162Z,17.39
2022-09-23T11:25:30.284Z,17.54
2022-09-23T11:28:18.266Z,17.68
2022-09-23T11:30:55.973Z,17.78
2022-09-23T11:33:42.610Z,17.82
2022-09-23T11:36:17.763Z,17.87
2022-09-23T11:38:51.119Z,17.93
2022-09-23T11:41:23.438Z,18.01
2022-09-23T11:43:57.127Z,18.06
2022-09-23T11:46:35.182Z,18.13
2022-09-23T11:49:10.906Z,18.17
2022-09-23T11:51:45.756Z,18.26
2022-09-23T11:54:21.155Z,18.35
2022-09-23T11:56:53.057Z,18.41
2022-09-23T11:59:39.333Z,18.35
2022-09-23T12:02:22.257Z,18.39
2022-09-23T12:05:02.454Z,18.49
2022-09-23T12:07:40.617Z,18.63
2022-09-23T12:10:12.893Z,18.73
2022-09-23T12:12:50.073Z,18.78
2022-09-23T12:15:32.063Z,18.87
2022-09-23T12:18:24.839Z,19.01
2022-09-23T12:21:38.743Z,19.13
2022-09-23T12:24:45.729Z,19.19
2022-09-23T12:27:24.980Z,19.31
2022-09-23T12:29:57.732Z,19.40
2022-09-23T12:32:26.835Z,19.54
2022-09-23T12:34:56.318Z,19.67
2022-09-23T12:37:28.982Z,19.75
2022-09-23T12:40:03.280Z,19.86
2022-09-23T12:42:33.703Z,19.95
2022-09-23T12:45:37.321Z,19.94
2022-09-23T12:48:26.395Z,19.88
2022-09-23T12:50:59.603Z,19.79
2022-09-23T12:53:59.301Z,19.82
2022-09-23T12:56:43.875Z,19.85
2022-09-23T12:59:25.165Z,19.92
2022-09-23T13:01:54.497Z,19.93
2022-09-23T13:05:01.975Z,19.92
2022-09-23T13:07:34.172Z,19.94
2022-09-23T13:10:16.210Z,19.97
2022-09-23T13:12:46.774Z,19.96
2022-09-23T13:15:29.146Z,19.95
2022-09-23T13:18:39.028Z,19.96
2022-09-23T13:21:18.678Z,19.95
2022-09-23T13:24:18.941Z,19.97
2022-09-23T13:26:48.302Z,20.00
2022-09-23T13:29:22.995Z,20.05
2022-09-23T13:31:53.236Z,20.13
2022-09-23T13:34:24.121Z,20.15
2022-09-23T13:36:53.591Z,20.15
2022-09-23T13:39:25.052Z,20.15
2022-09-23T13:41:56.056Z,20.20
2022-09-23T13:44:24.546Z,20.24
2022-09-23T13:46:58.663Z,20.21
2022-09-23T13:49:29.466Z,20.16
2022-09-23T13:51:58.465Z,20.15
2022-09-23T13:54:29.578Z,20.19
2022-09-23T13:56:58.400Z,20.19
2022-09-23T13:59:29.386Z,20.17
2022-09-23T14:02:08.231Z,20.19
2022-09-23T14:04:36.685Z,20.25
2022-09-23T14:07:05.818Z,20.30
2022-09-23T14:09:36.282Z,20.31
2022-09-23T14:12:08.316Z,20.32
2022-09-23T14:14:39.338Z,20.35
2022-09-23T14:17:11.219Z,20.37
2022-09-23T14:19:39.620Z,20.39
2022-09-23T14:22:24.276Z,20.42
2022-09-23T14:24:53.797Z,20.51
2022-09-23T14:27:29.246Z,20.57
2022-09-23T14:29:58.488Z,20.61
2022-09-23T14:32:29.927Z,20.60
2022-09-23T14:35:17.804Z,20.55
2022-09-23T14:38:05.752Z,20.52
2022-09-23T14:40:36.397Z,20.48
2022-09-23T14:43:07.363Z,20.42
2022-09-23T14:45:38.297Z,20.41
2022-09-23T14:48:11.264Z,20.40
2022-09-23T14:50:47.229Z,20.44
2022-09-23T14:53:34.629Z,20.42
2022-09-23T14:56:13.231Z,20.34
2022-09-23T14:58:49.471Z,20.29
2022-09-23T15:01:34.086Z,20.27
2022-09-23T15:04:15.334Z,20.29
2022-09-23T15:06:50.878Z,20.33
2022-09-23T15:09:24.332Z,20.37
2022-09-23T15:11:55.081Z,20.39
2022-09-23T15:14:37.104Z,20.40
2022-09-23T15:17:14.510Z,20.41
2022-09-23T15:19:44.504Z,20.39
2022-09-23T15:22:13.285Z,20.38
2022-09-23T15:24:44.790Z,20.36
2022-09-23T15:27:29.494Z,20.32
2022-09-23T15:30:12.643Z,20.30
2022-09-23T15:32:43.599Z,20.25
2022-09-23T15:35:16.444Z,20.23
2022-09-23T15:37:46.175Z,20.21
2022-09-23T15:40:23.160Z,20.20
2022-09-23T15:42:54.705Z,20.20
2022-09-23T15:45:36.325Z,20.18
2022-09-23T15:48:08.929Z,20.14
2022-09-23T15:50:39.385Z,20.07
2022-09-23T15:53:08.373Z,19.99
2022-09-23T15:55:36.724Z,19.92
2022-09-23T15:58:05.073Z,19.82
2022-09-23T16:00:34.785Z,19.73
2022-09-23T16:03:04.268Z,19.64
2022-09-23T16:05:38.006Z,19.55
2022-09-23T16:08:10.150Z,19.44
2022-09-23T16:10:39.299Z,19.35
2022-09-23T16:13:11.885Z,19.26
2022-09-23T16:15:40.301Z,19.19
2022-09-23T16:18:09.404Z,19.08
2022-09-23T16:20:39.949Z,19.02
2022-09-23T16:23:34.935Z,18.94
2022-09-23T16:26:05.605Z,18.85
2022-09-23T16:28:34.236Z,18.78
2022-09-23T16:31:03.059Z,18.72
2022-09-23T16:33:31.483Z,18.64
2022-09-23T16:36:01.028Z,18.56
2022-09-23T16:38:31.740Z,18.50
2022-09-23T16:41:00.567Z,18.44
2022-09-23T16:43:31.679Z,18.34
2022-09-23T16:46:00.209Z,18.25
2022-09-23T16:48:28.608Z,18.13
2022-09-23T16:50:57.113Z,18.03
2022-09-23T16:53:26.428Z,17.92
2022-09-23T16:55:57.928Z,17.82
2022-09-23T16:58:26.304Z,17.73
2022-09-23T17:01:16.264Z,17.65
2022-09-23T17:03:44.785Z,17.55
2022-09-23T17:06:14.033Z,17.48
2022-09-23T17:08:44.820Z,17.41
2022-09-23T17:11:16.891Z,17.34
2022-09-23T17:13:45.678Z,17.27
2022-09-23T17:16:24.207Z,17.19
2022-09-23T17:18:55.380Z,17.13
2022-09-23T17:21:25.908Z,17.10
2022-09-23T17:23:54.784Z,17.07
2022-09-23T17:26:26.274Z,17.02
2022-09-23T17:28:56.852Z,16.88
2022-09-23T17:31:26.275Z,16.74
2022-09-23T17:33:54.856Z,16.63
2022-09-23T17:36:23.297Z,16.41
2022-09-23T17:38:53.615Z,16.24
2022-09-23T17:41:24.297Z,16.17
2022-09-23T17:43:58.526Z,16.19
2022-09-23T17:46:30.196Z,16.17
2022-09-23T17:48:58.894Z,16.13
2022-09-23T17:51:27.618Z,16.09
2022-09-23T17:53:55.913Z,15.99
2022-09-23T17:56:29.777Z,15.83
2022-09-23T17:59:01.965Z,15.78
2022-09-23T18:01:31.136Z,15.73
2022-09-23T18:04:01.175Z,15.62
2022-09-23T18:06:31.617Z,15.56
2022-09-23T18:09:03.898Z,15.48
2022-09-23T18:11:35.811Z,15.43
2022-09-23T18:14:06.566Z,15.35
2022-09-23T18:16:40.046Z,15.27
2022-09-23T18:19:11.728Z,15.23
2022-09-23T18:21:42.380Z,15.13
2022-09-23T18:27:01.358Z,15.05
2022-09-23T18:29:29.721Z,15.09
2022-09-23T18:31:59.253Z,15.10
2022-09-23T18:34:28.591Z,15.06
2022-09-23T18:36:57.248Z,15.05
2022-09-23T18:39:25.702Z,14.90
2022-09-23T18:41:54.877Z,14.74
2022-09-23T18:44:24.612Z,14.60
2022-09-23T18:46:53.143Z,14.56
2022-09-23T18:49:38.913Z,14.55
2022-09-23T18:52:07.324Z,14.56
2022-09-23T18:54:35.801Z,14.67
2022-09-23T18:57:04.466Z,14.76
2022-09-23T18:59:34.174Z,14.77
2022-09-23T19:02:02.721Z,14.76
2022-09-23T19:04:31.210Z,14.81
2022-09-23T19:06:59.632Z,14.82
2022-09-23T19:09:28.740Z,14.85
2022-09-23T19:11:57.742Z,14.82
2022-09-23T19:14:26.685Z,14.73
2022-09-23T19:16:56.389Z,14.70
2022-09-23T19:19:24.682Z,14.59
2022-09-23T19:21:53.709Z,14.52
2022-09-23T19:24:22.086Z,14.46
2022-09-23T19:26:50.837Z,14.43
2022-09-23T19:29:21.686Z,14.35
2022-09-23T19:31:51.023Z,14.15
2022-09-23T19:34:23.774Z,13.97
2022-09-23T19:36:52.826Z,13.88
2022-09-23T19:39:22.934Z,13.86
2022-09-23T19:41:52.452Z,13.84
2022-09-23T19:44:20.965Z,13.77
2022-09-23T19:46:55.160Z,13.72
2022-09-23T19:49:26.933Z,13.71
2022-09-23T19:51:56.542Z,13.79
2022-09-23T19:54:26.874Z,13.88
2022-09-23T19:56:55.541Z,13.88
2022-09-23T19:59:23.918Z,13.76
2022-09-23T20:01:52.367Z,13.57
2022-09-23T20:04:20.975Z,13.43
2022-09-23T20:06:51.599Z,13.41
2022-09-23T20:09:20.114Z,13.47
2022-09-23T20:11:48.501Z,13.53
2022-09-23T20:14:17.233Z,13.53
2022-09-23T20:16:45.622Z,13.48
2022-09-23T20:19:14.093Z,13.41
2022-09-23T20:21:42.493Z,13.33
2022-09-23T20:24:13.092Z,13.26
2022-09-23T20:26:59.159Z,13.20
2022-09-23T20:29:27.705Z,13.07
2022-09-23T20:31:58.619Z,13.02
2022-09-23T20:34:29.670Z,13.06
2022-09-23T20:36:59.211Z,13.22
2022-09-23T20:39:29.191Z,13.30
2022-09-23T20:41:58.355Z,13.30
2022-09-23T20:44:26.773Z,13.29
2022-09-23T20:46:55.280Z,13.26
2022-09-23T20:49:23.603Z,13.25
2022-09-23T20:51:52.111Z,13.27
2022-09-23T20:54:21.251Z,13.34
2022-09-23T20:56:51.030Z,13.38
2022-09-23T20:59:19.374Z,13.25
2022-09-23T21:01:47.997Z,13.15
2022-09-23T21:04:16.575Z,13.17
2022-09-23T21:06:44.983Z,13.16
2022-09-23T21:09:13.284Z,13.15
2022-09-23T21:11:41.935Z,13.08
2022-09-23T21:14:11.725Z,12.95
2022-09-23T21:16:40.295Z,12.87
2022-09-23T21:19:09.007Z,12.89
2022-09-23T21:21:37.425Z,12.95
2022-09-23T21:24:45.348Z,13.08
2022-09-23T21:26:54.611Z,13.18
2022-09-23T21:29:24.349Z,13.28
2022-09-23T21:31:52.727Z,13.36
2022-09-23T21:34:21.337Z,13.34
2022-09-23T21:36:49.728Z,13.30
2022-09-23T21:39:18.096Z,13.30
2022-09-23T21:41:46.426Z,13.29
2022-09-23T21:44:14.948Z,13.27
2022-09-23T21:46:44.708Z,13.24
2022-09-23T21:49:13.348Z,13.27
2022-09-23T21:51:42.436Z,13.25
2022-09-23T21:54:14.317Z,13.18
2022-09-23T21:56:42.915Z,13.13
2022-09-23T21:59:11.846Z,13.11
2022-09-23T22:01:43.576Z,13.08
2022-09-23T22:04:17.333Z,13.04
2022-09-23T22:06:46.982Z,13.03
2022-09-23T22:09:17.161Z,13.02
2022-09-23T22:12:03.082Z,13.03
2022-09-23T22:14:31.850Z,13.05
2022-09-23T22:17:02.311Z,12.98
2022-09-23T22:19:35.564Z,12.86
2022-09-23T22:22:07.849Z,12.84
2022-09-23T22:24:36.236Z,12.90
2022-09-23T22:27:04.656Z,12.92
2022-09-23T22:29:56.104Z,12.90
2022-09-23T22:32:41.576Z,12.90
2022-09-23T22:35:13.579Z,12.94
2022-09-23T22:37:42.021Z,13.00
2022-09-23T22:40:14.095Z,13.05
2022-09-23T22:42:43.584Z,13.00
2022-09-23T22:45:13.442Z,12.99
2022-09-23T22:47:44.100Z,13.00
2022-09-23T22:50:15.086Z,13.04
2022-09-23T22:52:43.790Z,13.05
2022-09-23T22:55:12.956Z,13.06
2022-09-23T22:57:41.645Z,13.03
2022-09-23T23:00:11.262Z,12.97
2022-09-23T23:02:40.004Z,12.86
2022-09-23T23:05:18.290Z,12.80
2022-09-23T23:07:46.639Z,12.86
2022-09-23T23:10:15.447Z,12.90
2022-09-23T23:12:44.121Z,12.92
2022-09-23T23:15:12.854Z,12.97
2022-09-23T23:17:43.726Z,13.04
2022-09-23T23:20:12.366Z,13.07
2022-09-23T23:22:42.396Z,13.05
2022-09-23T23:25:11.018Z,13.04
2022-09-23T23:27:39.407Z,13.02
2022-09-23T23:30:09.384Z,13.03
2022-09-23T23:32:37.704Z,13.03
2022-09-23T23:35:06.918Z,12.91
2022-09-23T23:37:36.005Z,12.92
2022-09-23T23:40:06.335Z,12.95
2022-09-23T23:42:34.795Z,12.90
2022-09-23T23:45:03.185Z,12.93
2022-09-23T23:47:31.480Z,12.94
2022-09-23T23:49:59.818Z,12.94
2022-09-23T23:52:28.135Z,12.91
2022-09-23T23:54:56.522Z,12.90
2022-09-23T23:57:26.200Z,12.86
2022-09-23T23:59:54.756Z,12.83
